sensor_id;sensor_type;location;lat;lon;timestamp;temperature;humidity
28460;DHT22;32528;45.712;9.192;2023-05-07T00:01:06;20.20;87.30
28460;DHT22;32528;45.712;9.192;2023-05-07T00:03:06;20.10;87.00
28460;DHT22;32528;45.712;9.192;2023-05-07T00:05:07;20.00;87.00
28460;DHT22;32528;45.712;9.192;2023-05-07T00:07:09;20.00;87.10
28460;DHT22;32528;45.712;9.192;2023-05-07T00:09:09;19.90;87.00
28460;DHT22;32528;45.712;9.192;2023-05-07T00:11:10;19.80;86.90
28460;DHT22;32528;45.712;9.192;2023-05-07T00:13:10;19.70;86.90
28460;DHT22;32528;45.712;9.192;2023-05-07T00:15:12;19.70;87.10
28460;DHT22;32528;45.712;9.192;2023-05-07T00:17:12;19.70;86.00
28460;DHT22;32528;45.712;9.192;2023-05-07T00:19:13;19.70;85.60
28460;DHT22;32528;45.712;9.192;2023-05-07T00:21:14;19.70;85.40
28460;DHT22;32528;45.712;9.192;2023-05-07T00:23:14;19.60;85.60
28460;DHT22;32528;45.712;9.192;2023-05-07T00:25:15;19.50;86.20
28460;DHT22;32528;45.712;9.192;2023-05-07T00:27:16;19.50;87.00
28460;DHT22;32528;45.712;9.192;2023-05-07T00:29:16;19.50;87.70
28460;DHT22;32528;45.712;9.192;2023-05-07T00:31:17;19.30;88.50
28460;DHT22;32528;45.712;9.192;2023-05-07T00:33:18;19.20;89.40
28460;DHT22;32528;45.712;9.192;2023-05-07T00:35:21;19.10;90.10
28460;DHT22;32528;45.712;9.192;2023-05-07T00:37:22;19.10;90.70
28460;DHT22;32528;45.712;9.192;2023-05-07T00:39:24;19.00;90.90
28460;DHT22;32528;45.712;9.192;2023-05-07T00:41:24;18.90;91.20
28460;DHT22;32528;45.712;9.192;2023-05-07T00:43:26;19.00;91.50
28460;DHT22;32528;45.712;9.192;2023-05-07T00:45:28;18.90;91.80
28460;DHT22;32528;45.712;9.192;2023-05-07T00:47:29;18.90;92.00
28460;DHT22;32528;45.712;9.192;2023-05-07T00:49:35;18.80;92.40
28460;DHT22;32528;45.712;9.192;2023-05-07T00:51:39;18.70;92.70
28460;DHT22;32528;45.712;9.192;2023-05-07T00:53:39;18.60;92.90
28460;DHT22;32528;45.712;9.192;2023-05-07T00:55:40;18.40;92.90
28460;DHT22;32528;45.712;9.192;2023-05-07T00:57:41;18.30;93.10
28460;DHT22;32528;45.712;9.192;2023-05-07T00:59:42;18.30;92.90
28460;DHT22;32528;45.712;9.192;2023-05-07T01:01:43;18.30;92.90
28460;DHT22;32528;45.712;9.192;2023-05-07T01:03:43;18.30;93.20
28460;DHT22;32528;45.712;9.192;2023-05-07T01:05:44;18.30;93.50
28460;DHT22;32528;45.712;9.192;2023-05-07T01:07:46;18.30;93.80
28460;DHT22;32528;45.712;9.192;2023-05-07T01:09:47;18.20;94.20
28460;DHT22;32528;45.712;9.192;2023-05-07T01:11:48;18.20;94.50
28460;DHT22;32528;45.712;9.192;2023-05-07T01:13:49;18.10;95.00
28460;DHT22;32528;45.712;9.192;2023-05-07T01:15:51;18.10;95.60
28460;DHT22;32528;45.712;9.192;2023-05-07T01:17:51;18.20;96.40
28460;DHT22;32528;45.712;9.192;2023-05-07T01:19:59;18.00;97.80
28460;DHT22;32528;45.712;9.192;2023-05-07T01:22:03;18.00;99.60
28460;DHT22;32528;45.712;9.192;2023-05-07T01:24:13;18.00;99.90
28460;DHT22;32528;45.712;9.192;2023-05-07T01:26:14;17.80;99.90
28460;DHT22;32528;45.712;9.192;2023-05-07T01:28:18;17.80;99.90
28460;DHT22;32528;45.712;9.192;2023-05-07T01:30:19;17.80;99.90
28460;DHT22;32528;45.712;9.192;2023-05-07T01:32:27;17.70;99.90
28460;DHT22;32528;45.712;9.192;2023-05-07T01:34:30;17.70;99.90
28460;DHT22;32528;45.712;9.192;2023-05-07T01:36:31;17.70;99.90
28460;DHT22;32528;45.712;9.192;2023-05-07T01:38:32;17.70;99.90
28460;DHT22;32528;45.712;9.192;2023-05-07T01:40:33;17.80;99.90
28460;DHT22;32528;45.712;9.192;2023-05-07T01:42:35;17.80;99.90
28460;DHT22;32528;45.712;9.192;2023-05-07T01:44:36;17.90;99.90
28460;DHT22;32528;45.712;9.192;2023-05-07T01:46:36;17.90;99.90
28460;DHT22;32528;45.712;9.192;2023-05-07T01:48:39;17.80;99.90
28460;DHT22;32528;45.712;9.192;2023-05-07T01:50:40;17.80;99.90
28460;DHT22;32528;45.712;9.192;2023-05-07T01:52:41;17.70;99.90
28460;DHT22;32528;45.712;9.192;2023-05-07T01:54:42;17.60;99.90
28460;DHT22;32528;45.712;9.192;2023-05-07T01:56:43;17.70;99.90
28460;DHT22;32528;45.712;9.192;2023-05-07T01:58:44;17.60;99.90
28460;DHT22;32528;45.712;9.192;2023-05-07T02:00:46;17.60;99.90
28460;DHT22;32528;45.712;9.192;2023-05-07T02:02:47;17.60;99.90
28460;DHT22;32528;45.712;9.192;2023-05-07T02:05:10;17.50;99.90
28460;DHT22;32528;45.712;9.192;2023-05-07T02:07:12;17.50;99.90
28460;DHT22;32528;45.712;9.192;2023-05-07T02:09:13;17.50;99.90
28460;DHT22;32528;45.712;9.192;2023-05-07T02:11:16;17.50;99.90
28460;DHT22;32528;45.712;9.192;2023-05-07T02:13:17;17.50;99.90
28460;DHT22;32528;45.712;9.192;2023-05-07T02:15:17;17.50;99.90
28460;DHT22;32528;45.712;9.192;2023-05-07T02:17:19;17.50;99.90
28460;DHT22;32528;45.712;9.192;2023-05-07T02:19:20;17.60;99.90
28460;DHT22;32528;45.712;9.192;2023-05-07T02:21:22;17.60;99.90
28460;DHT22;32528;45.712;9.192;2023-05-07T02:23:23;17.50;99.90
28460;DHT22;32528;45.712;9.192;2023-05-07T02:25:24;17.40;99.90
28460;DHT22;32528;45.712;9.192;2023-05-07T02:27:24;17.30;99.90
28460;DHT22;32528;45.712;9.192;2023-05-07T02:29:25;17.10;99.90
28460;DHT22;32528;45.712;9.192;2023-05-07T02:31:27;17.10;99.90
28460;DHT22;32528;45.712;9.192;2023-05-07T02:33:28;17.10;99.90
28460;DHT22;32528;45.712;9.192;2023-05-07T02:35:28;17.10;99.90
28460;DHT22;32528;45.712;9.192;2023-05-07T02:37:30;17.00;99.90
28460;DHT22;32528;45.712;9.192;2023-05-07T02:39:31;17.00;99.90
28460;DHT22;32528;45.712;9.192;2023-05-07T02:41:32;17.00;99.90
28460;DHT22;32528;45.712;9.192;2023-05-07T02:43:32;17.00;99.90
28460;DHT22;32528;45.712;9.192;2023-05-07T02:45:33;17.00;99.90
28460;DHT22;32528;45.712;9.192;2023-05-07T02:47:35;16.90;99.90
28460;DHT22;32528;45.712;9.192;2023-05-07T02:49:37;16.90;99.90
28460;DHT22;32528;45.712;9.192;2023-05-07T02:51:38;16.80;99.90
28460;DHT22;32528;45.712;9.192;2023-05-07T02:53:44;16.80;99.90
28460;DHT22;32528;45.712;9.192;2023-05-07T02:55:45;16.90;99.90
28460;DHT22;32528;45.712;9.192;2023-05-07T02:57:47;16.80;99.90
28460;DHT22;32528;45.712;9.192;2023-05-07T02:59:47;16.80;99.90
28460;DHT22;32528;45.712;9.192;2023-05-07T03:01:49;16.80;99.90
28460;DHT22;32528;45.712;9.192;2023-05-07T03:03:50;16.80;99.90
28460;DHT22;32528;45.712;9.192;2023-05-07T03:05:50;16.90;99.90
28460;DHT22;32528;45.712;9.192;2023-05-07T03:07:51;16.90;99.90
28460;DHT22;32528;45.712;9.192;2023-05-07T03:09:52;16.90;99.90
28460;DHT22;32528;45.712;9.192;2023-05-07T03:11:54;17.00;99.90
28460;DHT22;32528;45.712;9.192;2023-05-07T03:13:54;17.00;99.90
28460;DHT22;32528;45.712;9.192;2023-05-07T03:15:56;17.00;99.90
28460;DHT22;32528;45.712;9.192;2023-05-07T03:17:58;16.90;99.90
28460;DHT22;32528;45.712;9.192;2023-05-07T03:20:00;16.90;99.90
28460;DHT22;32528;45.712;9.192;2023-05-07T03:22:01;16.90;99.90
28460;DHT22;32528;45.712;9.192;2023-05-07T03:24:02;16.90;99.90
28460;DHT22;32528;45.712;9.192;2023-05-07T03:26:03;16.80;99.90
28460;DHT22;32528;45.712;9.192;2023-05-07T03:28:04;16.90;99.90
28460;DHT22;32528;45.712;9.192;2023-05-07T03:30:13;16.90;99.90
28460;DHT22;32528;45.712;9.192;2023-05-07T03:32:13;16.80;99.90
28460;DHT22;32528;45.712;9.192;2023-05-07T03:34:15;16.90;99.90
28460;DHT22;32528;45.712;9.192;2023-05-07T03:36:17;16.90;99.90
28460;DHT22;32528;45.712;9.192;2023-05-07T03:38:18;16.80;99.90
28460;DHT22;32528;45.712;9.192;2023-05-07T03:40:19;16.80;99.90
28460;DHT22;32528;45.712;9.192;2023-05-07T03:42:24;16.80;99.90
28460;DHT22;32528;45.712;9.192;2023-05-07T03:44:26;16.90;99.90
28460;DHT22;32528;45.712;9.192;2023-05-07T03:46:28;16.90;99.90
28460;DHT22;32528;45.712;9.192;2023-05-07T03:48:29;16.80;99.90
28460;DHT22;32528;45.712;9.192;2023-05-07T03:50:32;16.80;99.90
28460;DHT22;32528;45.712;9.192;2023-05-07T03:52:33;16.70;99.90
28460;DHT22;32528;45.712;9.192;2023-05-07T03:54:36;16.70;99.90
28460;DHT22;32528;45.712;9.192;2023-05-07T03:56:37;16.70;99.90
28460;DHT22;32528;45.712;9.192;2023-05-07T03:58:37;16.70;99.90
28460;DHT22;32528;45.712;9.192;2023-05-07T04:00:44;16.60;99.90
28460;DHT22;32528;45.712;9.192;2023-05-07T04:02:56;16.70;99.90
28460;DHT22;32528;45.712;9.192;2023-05-07T04:05:00;16.70;99.90
28460;DHT22;32528;45.712;9.192;2023-05-07T04:07:03;16.70;99.90
28460;DHT22;32528;45.712;9.192;2023-05-07T04:09:05;16.70;99.90
28460;DHT22;32528;45.712;9.192;2023-05-07T04:11:08;16.70;99.90
28460;DHT22;32528;45.712;9.192;2023-05-07T04:13:11;16.60;99.90
28460;DHT22;32528;45.712;9.192;2023-05-07T04:15:12;16.60;99.90
28460;DHT22;32528;45.712;9.192;2023-05-07T04:17:12;16.60;99.90
28460;DHT22;32528;45.712;9.192;2023-05-07T04:19:13;16.50;99.90
28460;DHT22;32528;45.712;9.192;2023-05-07T04:21:15;16.50;99.90
28460;DHT22;32528;45.712;9.192;2023-05-07T04:23:16;16.60;99.90
28460;DHT22;32528;45.712;9.192;2023-05-07T04:25:17;16.70;99.90
28460;DHT22;32528;45.712;9.192;2023-05-07T04:27:18;16.70;99.90
28460;DHT22;32528;45.712;9.192;2023-05-07T04:29:19;16.80;99.90
28460;DHT22;32528;45.712;9.192;2023-05-07T04:31:20;16.80;99.90
28460;DHT22;32528;45.712;9.192;2023-05-07T04:33:24;16.60;99.90
28460;DHT22;32528;45.712;9.192;2023-05-07T04:35:25;16.60;99.90
28460;DHT22;32528;45.712;9.192;2023-05-07T04:37:26;16.60;99.90
28460;DHT22;32528;45.712;9.192;2023-05-07T04:39:28;16.60;99.90
28460;DHT22;32528;45.712;9.192;2023-05-07T04:41:29;16.50;99.90
28460;DHT22;32528;45.712;9.192;2023-05-07T04:43:30;16.50;99.90
28460;DHT22;32528;45.712;9.192;2023-05-07T04:45:31;16.50;99.90
28460;DHT22;32528;45.712;9.192;2023-05-07T04:47:32;16.40;99.90
28460;DHT22;32528;45.712;9.192;2023-05-07T04:49:36;16.50;99.90
28460;DHT22;32528;45.712;9.192;2023-05-07T04:51:36;16.40;99.90
28460;DHT22;32528;45.712;9.192;2023-05-07T04:53:38;16.40;99.90
28460;DHT22;32528;45.712;9.192;2023-05-07T04:55:40;16.40;99.90
28460;DHT22;32528;45.712;9.192;2023-05-07T04:57:41;16.50;99.90
28460;DHT22;32528;45.712;9.192;2023-05-07T04:59:44;16.40;99.90
28460;DHT22;32528;45.712;9.192;2023-05-07T05:01:45;16.50;99.90
28460;DHT22;32528;45.712;9.192;2023-05-07T05:03:46;16.40;99.90
28460;DHT22;32528;45.712;9.192;2023-05-07T05:05:48;16.40;99.90
28460;DHT22;32528;45.712;9.192;2023-05-07T05:07:49;16.40;99.90
28460;DHT22;32528;45.712;9.192;2023-05-07T05:09:52;16.40;99.90
28460;DHT22;32528;45.712;9.192;2023-05-07T05:11:53;16.50;99.90
28460;DHT22;32528;45.712;9.192;2023-05-07T05:13:54;16.40;99.90
28460;DHT22;32528;45.712;9.192;2023-05-07T05:15:55;16.40;99.90
28460;DHT22;32528;45.712;9.192;2023-05-07T05:17:57;16.50;99.90
28460;DHT22;32528;45.712;9.192;2023-05-07T05:19:58;16.60;99.90
28460;DHT22;32528;45.712;9.192;2023-05-07T05:21:59;16.60;99.90
28460;DHT22;32528;45.712;9.192;2023-05-07T05:24:03;16.70;99.90
28460;DHT22;32528;45.712;9.192;2023-05-07T05:26:04;16.80;99.90
28460;DHT22;32528;45.712;9.192;2023-05-07T05:28:07;16.80;99.90
28460;DHT22;32528;45.712;9.192;2023-05-07T05:30:09;16.90;99.90
28460;DHT22;32528;45.712;9.192;2023-05-07T05:32:11;16.90;99.90
28460;DHT22;32528;45.712;9.192;2023-05-07T05:34:12;17.00;99.90
28460;DHT22;32528;45.712;9.192;2023-05-07T05:36:15;16.90;99.90
28460;DHT22;32528;45.712;9.192;2023-05-07T05:38:18;16.90;99.90
28460;DHT22;32528;45.712;9.192;2023-05-07T05:40:20;16.80;99.90
28460;DHT22;32528;45.712;9.192;2023-05-07T05:42:21;16.80;99.90
28460;DHT22;32528;45.712;9.192;2023-05-07T05:44:22;16.90;99.90
28460;DHT22;32528;45.712;9.192;2023-05-07T05:46:23;16.80;99.90
28460;DHT22;32528;45.712;9.192;2023-05-07T05:48:25;16.90;99.90
28460;DHT22;32528;45.712;9.192;2023-05-07T05:50:26;17.10;99.90
28460;DHT22;32528;45.712;9.192;2023-05-07T05:52:27;17.10;99.90
28460;DHT22;32528;45.712;9.192;2023-05-07T05:54:29;17.20;99.90
28460;DHT22;32528;45.712;9.192;2023-05-07T05:56:30;17.40;99.90
28460;DHT22;32528;45.712;9.192;2023-05-07T05:58:31;17.40;99.90
28460;DHT22;32528;45.712;9.192;2023-05-07T06:00:36;17.50;99.90
28460;DHT22;32528;45.712;9.192;2023-05-07T06:02:38;17.50;99.90
28460;DHT22;32528;45.712;9.192;2023-05-07T06:04:41;17.70;99.90
28460;DHT22;32528;45.712;9.192;2023-05-07T06:06:44;17.70;99.90
28460;DHT22;32528;45.712;9.192;2023-05-07T06:08:44;17.80;99.90
28460;DHT22;32528;45.712;9.192;2023-05-07T06:10:48;17.80;99.90
28460;DHT22;32528;45.712;9.192;2023-05-07T06:12:49;17.90;99.90
28460;DHT22;32528;45.712;9.192;2023-05-07T06:14:51;17.90;99.90
28460;DHT22;32528;45.712;9.192;2023-05-07T06:16:52;18.00;99.90
28460;DHT22;32528;45.712;9.192;2023-05-07T06:18:53;18.00;99.90
28460;DHT22;32528;45.712;9.192;2023-05-07T06:20:53;18.00;99.90
28460;DHT22;32528;45.712;9.192;2023-05-07T06:22:59;18.10;99.90
28460;DHT22;32528;45.712;9.192;2023-05-07T06:25:00;18.20;99.90
28460;DHT22;32528;45.712;9.192;2023-05-07T06:27:00;18.30;99.90
28460;DHT22;32528;45.712;9.192;2023-05-07T06:29:03;18.40;99.90
28460;DHT22;32528;45.712;9.192;2023-05-07T06:31:14;18.50;99.90
28460;DHT22;32528;45.712;9.192;2023-05-07T06:33:16;18.60;99.90
28460;DHT22;32528;45.712;9.192;2023-05-07T06:35:17;18.60;99.90
28460;DHT22;32528;45.712;9.192;2023-05-07T06:37:18;18.60;99.90
28460;DHT22;32528;45.712;9.192;2023-05-07T06:39:31;18.70;99.90
28460;DHT22;32528;45.712;9.192;2023-05-07T06:41:32;18.60;99.90
28460;DHT22;32528;45.712;9.192;2023-05-07T06:43:40;18.60;99.90
28460;DHT22;32528;45.712;9.192;2023-05-07T06:46:00;18.60;99.90
28460;DHT22;32528;45.712;9.192;2023-05-07T06:48:01;18.70;99.90
28460;DHT22;32528;45.712;9.192;2023-05-07T06:50:05;18.70;99.90
28460;DHT22;32528;45.712;9.192;2023-05-07T06:52:07;18.80;99.90
28460;DHT22;32528;45.712;9.192;2023-05-07T06:54:08;18.80;99.90
28460;DHT22;32528;45.712;9.192;2023-05-07T06:56:11;18.80;99.90
28460;DHT22;32528;45.712;9.192;2023-05-07T06:58:13;18.80;99.90
28460;DHT22;32528;45.712;9.192;2023-05-07T07:00:14;18.80;99.90
28460;DHT22;32528;45.712;9.192;2023-05-07T07:02:23;18.80;99.90
28460;DHT22;32528;45.712;9.192;2023-05-07T07:04:24;18.80;99.90
28460;DHT22;32528;45.712;9.192;2023-05-07T07:06:33;18.70;99.90
28460;DHT22;32528;45.712;9.192;2023-05-07T07:08:36;18.70;99.90
28460;DHT22;32528;45.712;9.192;2023-05-07T07:10:39;18.70;99.90
28460;DHT22;32528;45.712;9.192;2023-05-07T07:12:40;18.80;99.90
28460;DHT22;32528;45.712;9.192;2023-05-07T07:14:40;18.90;99.90
28460;DHT22;32528;45.712;9.192;2023-05-07T07:16:41;19.00;99.90
28460;DHT22;32528;45.712;9.192;2023-05-07T07:18:42;19.10;99.90
28460;DHT22;32528;45.712;9.192;2023-05-07T07:20:43;19.20;99.90
28460;DHT22;32528;45.712;9.192;2023-05-07T07:22:45;19.40;99.90
28460;DHT22;32528;45.712;9.192;2023-05-07T07:24:46;19.50;99.90
28460;DHT22;32528;45.712;9.192;2023-05-07T07:26:50;19.60;99.90
28460;DHT22;32528;45.712;9.192;2023-05-07T07:28:52;19.70;99.90
28460;DHT22;32528;45.712;9.192;2023-05-07T07:30:55;19.80;99.90
28460;DHT22;32528;45.712;9.192;2023-05-07T07:32:56;20.00;99.90
28460;DHT22;32528;45.712;9.192;2023-05-07T07:35:03;20.10;99.90
28460;DHT22;32528;45.712;9.192;2023-05-07T07:37:03;20.10;99.90
28460;DHT22;32528;45.712;9.192;2023-05-07T07:39:07;20.20;99.90
28460;DHT22;32528;45.712;9.192;2023-05-07T07:41:08;20.30;99.90
28460;DHT22;32528;45.712;9.192;2023-05-07T07:43:08;20.30;99.90
28460;DHT22;32528;45.712;9.192;2023-05-07T07:45:09;20.40;99.90
28460;DHT22;32528;45.712;9.192;2023-05-07T07:47:14;20.60;99.90
28460;DHT22;32528;45.712;9.192;2023-05-07T07:49:16;20.70;99.90
28460;DHT22;32528;45.712;9.192;2023-05-07T07:51:18;20.50;99.90
28460;DHT22;32528;45.712;9.192;2023-05-07T07:53:19;20.50;99.90
28460;DHT22;32528;45.712;9.192;2023-05-07T07:55:20;20.50;99.90
28460;DHT22;32528;45.712;9.192;2023-05-07T07:57:24;20.50;99.90
28460;DHT22;32528;45.712;9.192;2023-05-07T07:59:25;20.60;99.90
28460;DHT22;32528;45.712;9.192;2023-05-07T08:01:25;20.70;99.90
28460;DHT22;32528;45.712;9.192;2023-05-07T08:03:27;20.70;99.90
28460;DHT22;32528;45.712;9.192;2023-05-07T08:05:32;20.70;99.90
28460;DHT22;32528;45.712;9.192;2023-05-07T08:07:34;20.70;99.90
28460;DHT22;32528;45.712;9.192;2023-05-07T08:09:35;20.90;99.90
28460;DHT22;32528;45.712;9.192;2023-05-07T08:11:38;21.00;99.90
28460;DHT22;32528;45.712;9.192;2023-05-07T08:13:39;21.30;99.90
28460;DHT22;32528;45.712;9.192;2023-05-07T08:15:40;21.40;99.90
28460;DHT22;32528;45.712;9.192;2023-05-07T08:17:41;21.50;99.90
28460;DHT22;32528;45.712;9.192;2023-05-07T08:19:42;21.60;99.90
28460;DHT22;32528;45.712;9.192;2023-05-07T08:21:46;21.70;99.90
28460;DHT22;32528;45.712;9.192;2023-05-07T08:23:48;21.80;99.90
28460;DHT22;32528;45.712;9.192;2023-05-07T08:25:49;21.90;97.70
28460;DHT22;32528;45.712;9.192;2023-05-07T08:27:50;22.10;98.40
28460;DHT22;32528;45.712;9.192;2023-05-07T08:29:51;22.30;98.20
28460;DHT22;32528;45.712;9.192;2023-05-07T08:31:54;22.30;97.40
28460;DHT22;32528;45.712;9.192;2023-05-07T08:33:55;22.40;97.80
28460;DHT22;32528;45.712;9.192;2023-05-07T08:35:56;22.50;95.80
28460;DHT22;32528;45.712;9.192;2023-05-07T08:37:57;22.50;95.20
28460;DHT22;32528;45.712;9.192;2023-05-07T08:39:58;22.40;95.40
28460;DHT22;32528;45.712;9.192;2023-05-07T08:42:04;22.40;96.70
28460;DHT22;32528;45.712;9.192;2023-05-07T08:44:07;22.40;96.40
28460;DHT22;32528;45.712;9.192;2023-05-07T08:46:11;22.40;96.60
28460;DHT22;32528;45.712;9.192;2023-05-07T08:48:17;22.50;96.60
28460;DHT22;32528;45.712;9.192;2023-05-07T08:50:23;22.60;97.00
28460;DHT22;32528;45.712;9.192;2023-05-07T08:52:26;22.60;95.30
28460;DHT22;32528;45.712;9.192;2023-05-07T08:54:27;22.90;95.40
28460;DHT22;32528;45.712;9.192;2023-05-07T08:56:28;22.90;95.30
28460;DHT22;32528;45.712;9.192;2023-05-07T08:58:29;23.00;95.80
28460;DHT22;32528;45.712;9.192;2023-05-07T09:00:31;23.20;94.90
28460;DHT22;32528;45.712;9.192;2023-05-07T09:02:37;23.50;94.40
28460;DHT22;32528;45.712;9.192;2023-05-07T09:04:41;23.50;93.70
28460;DHT22;32528;45.712;9.192;2023-05-07T09:06:42;23.40;93.90
28460;DHT22;32528;45.712;9.192;2023-05-07T09:08:51;23.40;93.20
28460;DHT22;32528;45.712;9.192;2023-05-07T09:10:53;23.60;93.40
28460;DHT22;32528;45.712;9.192;2023-05-07T09:12:54;23.50;93.00
28460;DHT22;32528;45.712;9.192;2023-05-07T09:14:54;23.60;92.80
28460;DHT22;32528;45.712;9.192;2023-05-07T09:16:56;23.80;92.10
28460;DHT22;32528;45.712;9.192;2023-05-07T09:18:58;23.90;90.60
28460;DHT22;32528;45.712;9.192;2023-05-07T09:20:59;23.90;89.80
28460;DHT22;32528;45.712;9.192;2023-05-07T09:23:00;23.90;88.40
28460;DHT22;32528;45.712;9.192;2023-05-07T09:25:03;23.80;86.90
28460;DHT22;32528;45.712;9.192;2023-05-07T09:27:04;23.90;89.00
28460;DHT22;32528;45.712;9.192;2023-05-07T09:29:05;23.60;88.10
28460;DHT22;32528;45.712;9.192;2023-05-07T09:31:07;23.60;88.90
28460;DHT22;32528;45.712;9.192;2023-05-07T09:33:08;23.80;88.80
28460;DHT22;32528;45.712;9.192;2023-05-07T09:35:15;24.00;89.70
28460;DHT22;32528;45.712;9.192;2023-05-07T09:37:19;24.10;88.00
28460;DHT22;32528;45.712;9.192;2023-05-07T09:39:20;23.90;83.80
28460;DHT22;32528;45.712;9.192;2023-05-07T09:41:21;24.20;85.50
28460;DHT22;32528;45.712;9.192;2023-05-07T09:43:33;24.50;82.50
28460;DHT22;32528;45.712;9.192;2023-05-07T09:45:36;24.60;85.00
28460;DHT22;32528;45.712;9.192;2023-05-07T09:47:37;24.80;86.60
28460;DHT22;32528;45.712;9.192;2023-05-07T09:49:39;24.60;86.50
28460;DHT22;32528;45.712;9.192;2023-05-07T09:51:49;24.60;86.90
28460;DHT22;32528;45.712;9.192;2023-05-07T09:53:50;24.70;90.20
28460;DHT22;32528;45.712;9.192;2023-05-07T09:55:52;24.70;90.50
28460;DHT22;32528;45.712;9.192;2023-05-07T09:57:55;24.70;90.10
28460;DHT22;32528;45.712;9.192;2023-05-07T09:59:56;24.50;85.20
28460;DHT22;32528;45.712;9.192;2023-05-07T10:01:59;24.40;84.20
28460;DHT22;32528;45.712;9.192;2023-05-07T10:04:01;24.50;85.60
28460;DHT22;32528;45.712;9.192;2023-05-07T10:06:03;24.40;83.50
28460;DHT22;32528;45.712;9.192;2023-05-07T10:08:05;24.50;84.20
28460;DHT22;32528;45.712;9.192;2023-05-07T10:10:10;24.40;83.30
28460;DHT22;32528;45.712;9.192;2023-05-07T10:12:15;24.40;84.10
28460;DHT22;32528;45.712;9.192;2023-05-07T10:14:17;24.60;83.70
28460;DHT22;32528;45.712;9.192;2023-05-07T10:16:18;24.60;83.60
28460;DHT22;32528;45.712;9.192;2023-05-07T10:18:23;24.50;83.80
28460;DHT22;32528;45.712;9.192;2023-05-07T10:20:33;24.70;83.60
28460;DHT22;32528;45.712;9.192;2023-05-07T10:22:37;24.90;82.40
28460;DHT22;32528;45.712;9.192;2023-05-07T10:24:39;25.10;82.50
28460;DHT22;32528;45.712;9.192;2023-05-07T10:26:47;25.00;83.40
28460;DHT22;32528;45.712;9.192;2023-05-07T10:28:50;25.00;84.20
28460;DHT22;32528;45.712;9.192;2023-05-07T10:30:59;24.90;85.90
28460;DHT22;32528;45.712;9.192;2023-05-07T10:33:10;25.00;85.50
28460;DHT22;32528;45.712;9.192;2023-05-07T10:35:21;25.30;86.30
28460;DHT22;32528;45.712;9.192;2023-05-07T10:37:23;25.40;85.20
28460;DHT22;32528;45.712;9.192;2023-05-07T10:39:25;25.40;85.80
28460;DHT22;32528;45.712;9.192;2023-05-07T10:41:26;25.30;82.50
28460;DHT22;32528;45.712;9.192;2023-05-07T10:43:37;25.00;83.40
28460;DHT22;32528;45.712;9.192;2023-05-07T10:45:38;25.10;83.60
28460;DHT22;32528;45.712;9.192;2023-05-07T10:52:11;25.00;86.90
28460;DHT22;32528;45.712;9.192;2023-05-07T10:56:28;25.30;87.50
28460;DHT22;32528;45.712;9.192;2023-05-07T10:58:39;25.40;87.30
28460;DHT22;32528;45.712;9.192;2023-05-07T11:01:02;25.50;87.50
28460;DHT22;32528;45.712;9.192;2023-05-07T11:03:11;25.70;85.00
28460;DHT22;32528;45.712;9.192;2023-05-07T11:05:21;25.70;83.40
28460;DHT22;32528;45.712;9.192;2023-05-07T11:07:28;25.70;82.20
28460;DHT22;32528;45.712;9.192;2023-05-07T11:11:56;25.60;80.40
28460;DHT22;32528;45.712;9.192;2023-05-07T11:14:06;25.10;79.40
28460;DHT22;32528;45.712;9.192;2023-05-07T11:16:20;25.00;81.10
28460;DHT22;32528;45.712;9.192;2023-05-07T11:18:25;25.10;80.40
28460;DHT22;32528;45.712;9.192;2023-05-07T11:20:46;25.10;79.40
28460;DHT22;32528;45.712;9.192;2023-05-07T11:22:58;25.10;80.00
28460;DHT22;32528;45.712;9.192;2023-05-07T11:25:08;25.00;79.40
28460;DHT22;32528;45.712;9.192;2023-05-07T11:27:10;25.10;81.10
28460;DHT22;32528;45.712;9.192;2023-05-07T11:29:12;25.00;78.80
28460;DHT22;32528;45.712;9.192;2023-05-07T11:31:13;25.10;80.00
28460;DHT22;32528;45.712;9.192;2023-05-07T11:33:17;25.30;80.40
28460;DHT22;32528;45.712;9.192;2023-05-07T11:35:17;25.30;77.80
28460;DHT22;32528;45.712;9.192;2023-05-07T11:37:21;25.20;77.90
28460;DHT22;32528;45.712;9.192;2023-05-07T11:39:28;25.10;78.00
28460;DHT22;32528;45.712;9.192;2023-05-07T11:41:35;25.30;78.20
28460;DHT22;32528;45.712;9.192;2023-05-07T11:43:37;25.20;78.40
28460;DHT22;32528;45.712;9.192;2023-05-07T11:45:37;25.10;76.60
28460;DHT22;32528;45.712;9.192;2023-05-07T11:47:38;25.10;76.70
28460;DHT22;32528;45.712;9.192;2023-05-07T11:49:46;25.40;76.30
28460;DHT22;32528;45.712;9.192;2023-05-07T11:51:46;25.50;76.50
28460;DHT22;32528;45.712;9.192;2023-05-07T11:53:47;25.50;75.90
28460;DHT22;32528;45.712;9.192;2023-05-07T11:55:48;25.50;75.20
28460;DHT22;32528;45.712;9.192;2023-05-07T11:57:52;25.70;76.50
28460;DHT22;32528;45.712;9.192;2023-05-07T11:59:56;25.80;77.20
28460;DHT22;32528;45.712;9.192;2023-05-07T12:01:57;26.00;75.90
28460;DHT22;32528;45.712;9.192;2023-05-07T12:03:59;26.00;76.10
28460;DHT22;32528;45.712;9.192;2023-05-07T12:06:05;26.00;76.10
28460;DHT22;32528;45.712;9.192;2023-05-07T12:08:06;25.90;76.90
28460;DHT22;32528;45.712;9.192;2023-05-07T12:10:07;26.00;77.40
28460;DHT22;32528;45.712;9.192;2023-05-07T12:12:07;26.10;76.50
28460;DHT22;32528;45.712;9.192;2023-05-07T12:14:08;26.10;75.60
28460;DHT22;32528;45.712;9.192;2023-05-07T12:16:09;26.40;76.90
28460;DHT22;32528;45.712;9.192;2023-05-07T12:18:10;26.40;74.20
28460;DHT22;32528;45.712;9.192;2023-05-07T12:20:12;26.50;75.10
28460;DHT22;32528;45.712;9.192;2023-05-07T12:22:13;26.60;75.20
28460;DHT22;32528;45.712;9.192;2023-05-07T12:24:14;26.70;74.20
28460;DHT22;32528;45.712;9.192;2023-05-07T12:26:15;26.70;72.50
28460;DHT22;32528;45.712;9.192;2023-05-07T12:28:18;26.60;74.20
28460;DHT22;32528;45.712;9.192;2023-05-07T12:30:19;26.80;74.30
28460;DHT22;32528;45.712;9.192;2023-05-07T12:32:20;26.90;74.30
28460;DHT22;32528;45.712;9.192;2023-05-07T12:34:21;26.90;71.80
28460;DHT22;32528;45.712;9.192;2023-05-07T12:36:22;27.00;74.50
28460;DHT22;32528;45.712;9.192;2023-05-07T12:38:23;27.20;74.80
28460;DHT22;32528;45.712;9.192;2023-05-07T12:40:24;27.30;73.70
28460;DHT22;32528;45.712;9.192;2023-05-07T12:42:24;26.90;74.80
28460;DHT22;32528;45.712;9.192;2023-05-07T12:44:35;26.90;77.60
28460;DHT22;32528;45.712;9.192;2023-05-07T12:46:38;26.80;75.80
28460;DHT22;32528;45.712;9.192;2023-05-07T12:48:45;26.90;75.50
28460;DHT22;32528;45.712;9.192;2023-05-07T12:50:56;26.80;74.00
28460;DHT22;32528;45.712;9.192;2023-05-07T12:52:57;26.80;73.60
28460;DHT22;32528;45.712;9.192;2023-05-07T12:54:57;26.80;72.00
28460;DHT22;32528;45.712;9.192;2023-05-07T12:57:05;26.80;72.70
28460;DHT22;32528;45.712;9.192;2023-05-07T12:59:05;26.80;74.40
28460;DHT22;32528;45.712;9.192;2023-05-07T13:01:07;26.70;73.00
28460;DHT22;32528;45.712;9.192;2023-05-07T13:03:10;26.70;72.70